Time;durP1;ratioP1;P1;durP2;ratioP2;P2;SDS_P1;SDS_P2;PMS_P1;PMS_P2;Temp;Humidity;BMP_temperature;BMP_pressure;BME280_temperature;BME280_humidity;BME280_pressure;Samples;Min_cycle;Max_cycle;Signal;HPM_P1;HPM_P2
2021/01/22 00:00:06;;;;;;;28.67;18.77;;;4.20;81.10;;;;;;5074558;28;20028;-61
2021/01/22 00:02:31;;;;;;;28.52;19.85;;;4.20;80.90;;;;;;5067610;28;20395;-61
2021/01/22 00:04:57;;;;;;;29.60;19.08;;;4.20;80.90;;;;;;5073558;28;20028;-61
2021/01/22 00:07:23;;;;;;;33.58;19.85;;;4.20;81.00;;;;;;5073931;28;20515;-61
2021/01/22 00:09:48;;;;;;;32.70;19.30;;;4.20;80.90;;;;;;5073881;28;20017;-61
2021/01/22 00:12:14;;;;;;;31.77;18.63;;;4.20;80.90;;;;;;5072604;28;20107;-61
2021/01/22 00:14:40;;;;;;;28.92;17.83;;;4.20;81.00;;;;;;5072535;28;20480;-61
2021/01/22 00:17:05;;;;;;;31.08;19.48;;;4.20;81.00;;;;;;5073034;28;20020;-61
2021/01/22 00:19:31;;;;;;;30.08;19.20;;;4.20;80.90;;;;;;5073086;28;20100;-61
2021/01/22 00:21:57;;;;;;;33.97;21.75;;;4.20;80.90;;;;;;5073923;28;20111;-61
2021/01/22 00:24:22;;;;;;;34.00;21.60;;;4.20;81.00;;;;;;5073995;28;20031;-61
2021/01/22 00:26:48;;;;;;;33.25;22.30;;;4.20;80.90;;;;;;5071611;28;20019;-61
2021/01/22 00:29:14;;;;;;;37.45;24.00;;;4.20;80.90;;;;;;5073769;28;20028;-61
2021/01/22 00:31:40;;;;;;;39.03;24.38;;;4.20;81.00;;;;;;5074042;28;20024;-61
2021/01/22 00:34:05;;;;;;;41.00;25.48;;;4.20;81.10;;;;;;5069777;28;20029;-61
2021/01/22 00:36:31;;;;;;;41.10;24.52;;;4.20;81.00;;;;;;5071844;28;20025;-61
2021/01/22 00:38:57;;;;;;;40.08;22.83;;;4.20;81.10;;;;;;5073573;28;20036;-61
2021/01/22 00:41:22;;;;;;;38.65;25.48;;;4.20;81.00;;;;;;5073625;28;20734;-61
2021/01/22 00:43:48;;;;;;;33.10;21.88;;;4.20;81.00;;;;;;5072137;28;20036;-61
2021/01/22 00:46:14;;;;;;;35.58;20.75;;;4.20;80.90;;;;;;5071178;28;20369;-61
2021/01/22 00:48:39;;;;;;;36.80;23.75;;;4.20;81.00;;;;;;5073410;28;20403;-61
2021/01/22 00:51:05;;;;;;;36.70;23.05;;;4.20;81.20;;;;;;5073638;28;20020;-61
2021/01/22 00:53:31;;;;;;;34.40;20.90;;;4.20;81.30;;;;;;5071607;28;20063;-61
2021/01/22 00:55:57;;;;;;;40.13;24.42;;;4.20;81.40;;;;;;5073350;28;20028;-61
2021/01/22 00:58:22;;;;;;;37.53;22.35;;;4.20;81.30;;;;;;5073920;28;20020;-61
2021/01/22 01:00:48;;;;;;;35.15;21.83;;;4.20;81.30;;;;;;5071950;28;20021;-61
2021/01/22 01:03:14;;;;;;;37.42;22.77;;;4.20;81.20;;;;;;5067971;28;20028;-61
2021/01/22 01:05:39;;;;;;;34.15;20.13;;;4.20;81.00;;;;;;5073398;28;20025;-61
2021/01/22 01:08:05;;;;;;;29.23;17.75;;;4.20;81.00;;;;;;5073166;28;20039;-61
2021/01/22 01:10:31;;;;;;;32.45;20.17;;;4.20;81.00;;;;;;5071478;28;20074;-61
2021/01/22 01:12:57;;;;;;;36.17;22.27;;;4.20;81.20;;;;;;5071055;28;20376;-61
2021/01/22 01:15:22;;;;;;;36.28;22.60;;;4.20;81.20;;;;;;5071858;28;20571;-61
2021/01/22 01:17:48;;;;;;;35.33;20.85;;;4.20;81.20;;;;;;5071364;28;20067;-61
2021/01/22 01:20:14;;;;;;;33.80;19.55;;;4.10;81.10;;;;;;5069995;28;20028;-61
2021/01/22 01:22:39;;;;;;;32.92;21.35;;;4.10;81.10;;;;;;5072001;28;20016;-61
2021/01/22 01:25:06;;;;;;;31.63;19.50;;;4.10;81.20;;;;;;5073058;28;20012;-61
2021/01/22 01:27:32;;;;;;;31.15;20.42;;;4.10;81.40;;;;;;5071339;28;20517;-61
2021/01/22 01:29:58;;;;;;;34.60;22.23;;;4.00;81.20;;;;;;5071916;28;20028;-61
2021/01/22 01:32:23;;;;;;;31.33;19.92;;;4.00;81.30;;;;;;5072759;28;20035;-61
2021/01/22 01:34:49;;;;;;;30.40;18.27;;;4.00;81.50;;;;;;5065017;28;20029;-60
2021/01/22 01:37:15;;;;;;;30.92;19.30;;;4.00;81.50;;;;;;5071685;28;20056;-61
2021/01/22 01:39:40;;;;;;;33.42;20.30;;;4.00;81.50;;;;;;5072752;28;20024;-61
2021/01/22 01:42:06;;;;;;;31.60;19.75;;;4.00;81.50;;;;;;5072864;28;20023;-61
2021/01/22 01:44:32;;;;;;;38.15;23.10;;;4.00;82.20;;;;;;5070739;28;20483;-61
2021/01/22 01:46:58;;;;;;;35.63;21.17;;;4.00;81.70;;;;;;5072885;28;20032;-61
2021/01/22 01:49:24;;;;;;;43.40;26.75;;;4.00;81.60;;;;;;5072858;28;20027;-61
2021/01/22 01:51:50;;;;;;;39.35;24.80;;;4.10;81.50;;;;;;5072843;28;20036;-61
2021/01/22 01:54:18;;;;;;;34.05;22.98;;;4.10;81.60;;;;;;5071478;28;20056;-61
2021/01/22 01:56:44;;;;;;;31.80;21.33;;;4.00;81.30;;;;;;5071660;28;20054;-61
2021/01/22 01:59:11;;;;;;;39.10;24.45;;;4.00;81.30;;;;;;5072479;28;20029;-61
2021/01/22 02:01:37;;;;;;;45.60;28.52;;;4.00;81.40;;;;;;5069935;28;20060;-61
2021/01/22 02:04:03;;;;;;;35.58;22.70;;;4.00;81.40;;;;;;5072443;28;20021;-61
2021/01/22 02:06:30;;;;;;;36.13;24.08;;;3.90;81.40;;;;;;5072577;28;20066;-61
2021/01/22 02:08:56;;;;;;;39.97;24.38;;;3.90;81.60;;;;;;5072845;28;20025;-61
2021/01/22 02:11:22;;;;;;;46.67;26.83;;;3.90;81.40;;;;;;5069613;28;20020;-61
2021/01/22 02:13:49;;;;;;;38.05;25.02;;;3.90;81.50;;;;;;5071629;28;20058;-61
2021/01/22 02:16:15;;;;;;;39.88;23.63;;;3.90;81.70;;;;;;5072966;28;20073;-61
2021/01/22 02:18:44;;;;;;;32.55;20.08;;;3.90;81.60;;;;;;5072246;28;20444;-61
2021/01/22 02:21:25;;;;;;;30.25;19.85;;;3.90;81.50;;;;;;5072700;28;20017;-61
2021/01/22 02:24:15;;;;;;;30.02;17.83;;;3.90;81.50;;;;;;5067893;28;20021;-61
2021/01/22 02:26:51;;;;;;;28.80;17.88;;;3.90;81.60;;;;;;5068823;28;20085;-61
2021/01/22 02:29:18;;;;;;;24.20;16.40;;;3.80;81.40;;;;;;5072398;28;20036;-61
2021/01/22 02:31:45;;;;;;;26.98;15.45;;;3.80;81.30;;;;;;5069962;28;20030;-61
2021/01/22 02:34:14;;;;;;;28.27;16.45;;;3.80;81.30;;;;;;5071089;28;20463;-61
2021/01/22 02:36:43;;;;;;;22.33;14.57;;;3.80;81.70;;;;;;5074641;28;20032;-61
2021/01/22 02:39:13;;;;;;;22.48;14.57;;;3.80;81.90;;;;;;5074839;28;20032;-61
2021/01/22 02:41:43;;;;;;;27.65;15.57;;;3.80;81.60;;;;;;5075903;28;20166;-61
2021/01/22 02:44:09;;;;;;;25.63;15.45;;;3.80;81.50;;;;;;5074853;28;20037;-61
2021/01/22 02:46:36;;;;;;;22.30;13.30;;;3.70;81.50;;;;;;5075791;28;20020;-61
2021/01/22 02:49:03;;;;;;;22.73;11.98;;;3.70;82.10;;;;;;5076131;28;20051;-61
2021/01/22 02:51:28;;;;;;;24.23;15.75;;;3.70;81.40;;;;;;5074343;28;20188;-61
2021/01/22 02:53:54;;;;;;;22.00;14.18;;;3.60;81.50;;;;;;5075794;28;20448;-61
2021/01/22 02:56:32;;;;;;;24.10;15.13;;;3.60;81.70;;;;;;5075591;28;20025;-61
2021/01/22 02:59:21;;;;;;;25.52;15.55;;;3.60;81.70;;;;;;5065317;28;20116;-61
2021/01/22 03:02:00;;;;;;;27.77;17.63;;;3.50;81.60;;;;;;5070674;28;20044;-61
2021/01/22 03:04:27;;;;;;;22.52;14.48;;;3.50;81.90;;;;;;5069599;28;20096;-61
2021/01/22 03:06:56;;;;;;;24.05;15.90;;;3.50;81.90;;;;;;5070867;28;20133;-61
2021/01/22 03:09:25;;;;;;;26.30;15.15;;;3.50;82.10;;;;;;5074658;28;20028;-61
2021/01/22 03:11:51;;;;;;;33.67;20.50;;;3.50;82.10;;;;;;5073915;28;20651;-61
2021/01/22 03:14:21;;;;;;;30.30;19.08;;;3.50;82.20;;;;;;5073012;28;20042;-61
2021/01/22 03:16:50;;;;;;;25.27;16.90;;;3.50;82.30;;;;;;5075635;28;20039;-61
2021/01/22 03:19:17;;;;;;;24.17;15.73;;;3.50;82.10;;;;;;5073785;28;20119;-61
2021/01/22 03:21:43;;;;;;;20.63;13.93;;;3.50;82.10;;;;;;5073327;28;20047;-61
2021/01/22 03:24:09;;;;;;;21.30;14.43;;;3.50;82.10;;;;;;5075094;28;20464;-61
2021/01/22 03:26:35;;;;;;;22.60;14.93;;;3.50;82.30;;;;;;5074176;28;20029;-61
2021/01/22 03:29:01;;;;;;;27.10;17.27;;;3.50;82.30;;;;;;5074970;28;20075;-61
2021/01/22 03:31:26;;;;;;;25.05;17.35;;;3.50;82.20;;;;;;5074949;28;20052;-61
2021/01/22 03:33:52;;;;;;;30.88;19.48;;;3.60;82.30;;;;;;5074593;28;20024;-61
2021/01/22 03:36:18;;;;;;;40.65;23.92;;;3.60;82.50;;;;;;5068707;28;20060;-61
2021/01/22 03:38:44;;;;;;;30.77;20.27;;;3.60;82.30;;;;;;5068182;28;20033;-61
2021/01/22 03:41:10;;;;;;;29.88;19.02;;;3.60;82.40;;;;;;5074415;28;20066;-61
2021/01/22 03:43:35;;;;;;;27.17;17.80;;;3.60;82.20;;;;;;5072563;28;20035;-61
2021/01/22 03:46:01;;;;;;;23.17;15.05;;;3.60;81.90;;;;;;5074312;28;20402;-61
2021/01/22 03:48:27;;;;;;;26.08;17.40;;;3.60;82.40;;;;;;5074803;28;20499;-61
2021/01/22 03:50:52;;;;;;;33.85;20.48;;;3.60;82.10;;;;;;5074787;28;20021;-61
2021/01/22 03:53:18;;;;;;;35.05;21.83;;;3.60;82.20;;;;;;5074408;28;20032;-61
2021/01/22 03:55:44;;;;;;;36.60;23.48;;;3.60;82.20;;;;;;5074493;28;20503;-61
2021/01/22 03:58:12;;;;;;;28.63;19.05;;;3.60;81.90;;;;;;5074236;28;20103;-61
2021/01/22 04:00:38;;;;;;;28.35;17.48;;;3.50;82.00;;;;;;5073523;28;20032;-61
2021/01/22 04:03:04;;;;;;;31.60;19.65;;;3.50;82.20;;;;;;5071912;28;20032;-61
2021/01/22 04:05:30;;;;;;;36.42;21.42;;;3.60;82.30;;;;;;5074093;28;20024;-61
2021/01/22 04:07:56;;;;;;;34.95;22.63;;;3.60;82.40;;;;;;5072660;28;20066;-61
2021/01/22 04:10:21;;;;;;;34.47;20.08;;;3.60;82.30;;;;;;5072826;28;20077;-61
2021/01/22 04:12:47;;;;;;;27.98;18.00;;;3.60;82.40;;;;;;5074126;28;20028;-61
2021/01/22 04:15:13;;;;;;;31.50;20.13;;;3.70;82.30;;;;;;5071866;28;20056;-61
2021/01/22 04:17:39;;;;;;;33.90;20.15;;;3.70;82.20;;;;;;5072488;28;20036;-61
2021/01/22 04:20:05;;;;;;;24.63;14.73;;;3.70;82.20;;;;;;5073749;28;20103;-61
2021/01/22 04:22:31;;;;;;;25.45;16.58;;;3.70;82.20;;;;;;5073962;28;20036;-61
2021/01/22 04:24:57;;;;;;;22.60;14.48;;;3.70;82.20;;;;;;5074126;28;20048;-61
2021/01/22 04:27:23;;;;;;;26.55;16.33;;;3.70;82.20;;;;;;5073679;28;20023;-61
2021/01/22 04:29:48;;;;;;;23.10;14.32;;;3.70;82.30;;;;;;5071638;28;20032;-61
2021/01/22 04:32:14;;;;;;;23.30;13.73;;;3.70;82.40;;;;;;5072161;28;20016;-61
2021/01/22 04:34:40;;;;;;;26.08;14.82;;;3.70;82.20;;;;;;5071544;28;20049;-61
2021/01/22 04:37:06;;;;;;;24.30;14.98;;;3.70;82.20;;;;;;5071062;28;20032;-61
2021/01/22 04:39:32;;;;;;;23.67;14.10;;;3.60;82.20;;;;;;5072144;28;20483;-61
2021/01/22 04:41:59;;;;;;;26.70;15.25;;;3.60;82.30;;;;;;5072123;28;20054;-61
2021/01/22 04:44:25;;;;;;;24.90;15.00;;;3.60;82.20;;;;;;5071485;28;20135;-61
2021/01/22 04:46:53;;;;;;;28.90;16.27;;;3.60;82.40;;;;;;5071336;28;20055;-61
2021/01/22 04:49:20;;;;;;;35.35;18.98;;;3.60;82.30;;;;;;5073180;28;20017;-61
2021/01/22 04:51:49;;;;;;;38.13;22.33;;;3.60;82.50;;;;;;5072666;28;20586;-61
2021/01/22 04:54:37;;;;;;;36.13;20.55;;;3.60;82.60;;;;;;5073386;28;20032;-61
2021/01/22 04:57:06;;;;;;;30.50;18.63;;;3.60;82.50;;;;;;5064600;28;20472;-61
2021/01/22 04:59:49;;;;;;;23.77;14.73;;;3.50;82.50;;;;;;5072603;28;20069;-61
2021/01/22 05:02:16;;;;;;;31.33;19.25;;;3.50;82.40;;;;;;5073427;28;20452;-61
2021/01/22 05:04:42;;;;;;;23.70;15.18;;;3.50;82.60;;;;;;5073245;28;20032;-61
2021/01/22 05:07:11;;;;;;;29.65;19.42;;;3.50;82.70;;;;;;5071905;28;20041;-61
2021/01/22 05:09:38;;;;;;;34.30;21.45;;;3.50;82.80;;;;;;5073264;28;20063;-61
2021/01/22 05:12:04;;;;;;;36.63;22.10;;;3.50;83.00;;;;;;5072838;28;20032;-60
2021/01/22 05:14:30;;;;;;;35.90;20.90;;;3.60;83.10;;;;;;5071791;28;20040;-61
2021/01/22 05:17:06;;;;;;;33.28;21.05;;;3.60;82.80;;;;;;5073298;28;20047;-61
2021/01/22 05:19:33;;;;;;;27.00;15.82;;;3.50;82.60;;;;;;5072675;28;20090;-61
2021/01/22 05:22:04;;;;;;;24.75;15.80;;;3.50;82.70;;;;;;5071836;28;20047;-61
2021/01/22 05:24:30;;;;;;;25.48;14.48;;;3.50;82.80;;;;;;5068988;28;20437;-61
2021/01/22 05:27:00;;;;;;;25.60;13.93;;;3.50;82.90;;;;;;5068782;28;20028;-61
2021/01/22 05:29:26;;;;;;;23.95;14.73;;;3.50;83.10;;;;;;5072491;28;20024;-61
2021/01/22 05:31:52;;;;;;;31.48;18.33;;;3.50;83.10;;;;;;5073070;28;20099;-61
2021/01/22 05:34:18;;;;;;;27.50;15.90;;;3.50;83.20;;;;;;5071575;28;20120;-61
2021/01/22 05:36:44;;;;;;;28.70;16.98;;;3.50;83.20;;;;;;5071269;28;20082;-61
2021/01/22 05:39:20;;;;;;;28.67;16.60;;;3.50;83.10;;;;;;5061588;28;20439;-61
2021/01/22 05:41:54;;;;;;;25.88;15.88;;;3.60;83.20;;;;;;5065506;28;20036;-61
2021/01/22 05:44:21;;;;;;;23.75;14.93;;;3.60;83.20;;;;;;5066461;28;20029;-61
2021/01/22 05:47:01;;;;;;;28.05;15.48;;;3.60;83.20;;;;;;5072363;28;20059;-61
2021/01/22 05:49:26;;;;;;;26.23;15.32;;;3.70;83.00;;;;;;5071690;28;20032;-61
2021/01/22 05:51:53;;;;;;;25.00;15.68;;;3.70;83.00;;;;;;5071779;28;20024;-61
2021/01/22 05:54:38;;;;;;;23.20;13.60;;;3.70;82.80;;;;;;5073021;28;20425;-61
2021/01/22 05:57:05;;;;;;;29.38;14.70;;;3.70;82.90;;;;;;5061120;28;20024;-61
2021/01/22 05:59:32;;;;;;;20.15;12.57;;;3.70;82.90;;;;;;5071695;28;20024;-61
2021/01/22 06:01:58;;;;;;;19.15;12.73;;;3.70;82.80;;;;;;5071694;28;20048;-60
2021/01/22 06:04:23;;;;;;;19.77;12.38;;;3.70;82.80;;;;;;5071770;28;20051;-61
2021/01/22 06:06:51;;;;;;;24.17;13.95;;;3.70;82.70;;;;;;5069769;28;20055;-61
2021/01/22 06:09:32;;;;;;;21.15;12.88;;;3.70;82.80;;;;;;5076235;28;20024;-61
2021/01/22 06:12:01;;;;;;;24.88;14.90;;;3.70;82.90;;;;;;5076850;28;20036;-61
2021/01/22 06:14:32;;;;;;;25.58;14.60;;;3.70;82.90;;;;;;5075620;28;20423;-61
2021/01/22 06:16:58;;;;;;;;;;;3.70;82.70;;;;;;5074956;28;20116;-61
2021/01/22 06:19:26;;;;;;;17.42;11.32;;;3.60;82.70;;;;;;5076342;28;20003;-61
2021/01/22 06:22:03;;;;;;;25.13;14.18;;;3.60;82.80;;;;;;5076277;28;20376;-61
2021/01/22 06:24:29;;;;;;;29.35;17.98;;;3.60;83.00;;;;;;5066329;28;20030;-61
2021/01/22 06:26:56;;;;;;;35.67;21.52;;;3.60;83.00;;;;;;5067153;28;20057;-61
2021/01/22 06:29:22;;;;;;;39.58;23.30;;;3.60;83.10;;;;;;5071887;28;20507;-61
2021/01/22 06:31:50;;;;;;;43.47;25.83;;;3.60;83.10;;;;;;5074522;28;20048;-61
2021/01/22 06:34:16;;;;;;;39.78;23.13;;;3.60;83.20;;;;;;5069868;28;20025;-61
2021/01/22 06:36:47;;;;;;;41.95;23.52;;;3.60;82.90;;;;;;5063337;28;20039;-61
2021/01/22 06:39:13;;;;;;;42.47;25.65;;;3.60;82.90;;;;;;5067297;28;20073;-61
2021/01/22 06:41:40;;;;;;;46.33;27.95;;;3.60;83.00;;;;;;5073984;28;20103;-61
2021/01/22 06:44:06;;;;;;;38.97;23.65;;;3.60;83.00;;;;;;5073040;28;20024;-60
2021/01/22 06:46:33;;;;;;;38.75;20.98;;;3.60;83.00;;;;;;5065601;28;20013;-61
2021/01/22 06:48:59;;;;;;;32.60;18.67;;;3.60;83.30;;;;;;5068647;28;20052;-61
2021/01/22 06:51:30;;;;;;;34.95;19.60;;;3.70;83.40;;;;;;5060603;28;20465;-60
2021/01/22 06:54:10;;;;;;;37.27;20.90;;;3.70;83.40;;;;;;5061405;28;20665;-60
2021/01/22 06:56:56;;;;;;;39.03;21.45;;;3.80;83.40;;;;;;5061150;28;20085;-61
2021/01/22 06:59:24;;;;;;;35.55;20.30;;;3.80;83.40;;;;;;5060942;28;20048;-61
2021/01/22 07:01:51;;;;;;;30.48;18.42;;;3.80;83.30;;;;;;5059032;28;20360;-61
2021/01/22 07:04:29;;;;;;;31.25;18.58;;;3.90;83.30;;;;;;5060333;28;20029;-60
2021/01/22 07:07:02;;;;;;;28.08;17.85;;;3.90;83.10;;;;;;5061876;28;20496;-61
2021/01/22 07:09:43;;;;;;;29.85;17.73;;;3.90;83.00;;;;;;5060518;28;20452;-63
2021/01/22 07:12:35;;;;;;;27.48;15.90;;;3.90;82.70;;;;;;5055909;28;20414;-61
2021/01/22 07:15:00;;;;;;;29.33;16.38;;;3.90;82.70;;;;;;5059322;28;20101;-60
2021/01/22 07:17:33;;;;;;;29.98;17.92;;;3.90;82.90;;;;;;5059319;28;20037;-62
2021/01/22 07:20:09;;;;;;;24.88;14.88;;;3.90;83.10;;;;;;5060874;28;20423;-62
2021/01/22 07:22:52;;;;;;;27.95;16.27;;;3.90;82.90;;;;;;5056173;28;20082;-58
2021/01/22 07:25:42;;;;;;;27.40;16.73;;;4.00;83.00;;;;;;5057786;28;20035;-60
2021/01/22 07:28:17;;;;;;;30.23;16.27;;;4.00;82.90;;;;;;5053528;28;20032;-61
2021/01/22 07:30:43;;;;;;;32.20;17.92;;;4.00;82.80;;;;;;5057581;28;20123;-60
2021/01/22 07:33:28;;;;;;;35.03;19.95;;;4.10;82.90;;;;;;5055589;28;20496;-60
2021/01/22 07:36:06;;;;;;;37.58;20.80;;;4.10;82.60;;;;;;5057288;28;20032;-60
2021/01/22 07:38:37;;;;;;;32.83;18.77;;;4.20;82.70;;;;;;5054512;28;20021;-60
2021/01/22 07:41:03;;;;;;;31.17;18.77;;;4.20;82.70;;;;;;5055068;28;20036;-60
2021/01/22 07:43:29;;;;;;;34.03;18.40;;;4.30;82.80;;;;;;5054856;28;20031;-60
2021/01/22 07:46:07;;;;;;;30.77;17.42;;;4.30;82.60;;;;;;5055778;28;20678;-60
2021/01/22 07:48:34;;;;;;;30.58;18.15;;;4.40;82.60;;;;;;5056952;28;20121;-61
2021/01/22 07:51:20;;;;;;;31.02;18.98;;;4.40;82.20;;;;;;5056719;28;20036;-61
2021/01/22 07:53:45;;;;;;;29.35;18.17;;;4.40;82.40;;;;;;5054995;28;20442;-60
2021/01/22 07:56:11;;;;;;;28.05;17.27;;;4.50;82.40;;;;;;5052371;28;20066;-60
2021/01/22 07:58:38;;;;;;;22.17;14.38;;;4.50;82.00;;;;;;5052219;28;20025;-60
2021/01/22 08:01:04;;;;;;;20.33;12.30;;;4.50;81.70;;;;;;5057934;28;20031;-60
2021/01/22 08:03:43;;;;;;;20.17;13.82;;;4.50;81.50;;;;;;5059581;28;20040;-60
2021/01/22 08:06:09;;;;;;;20.33;12.90;;;4.50;81.30;;;;;;5056044;28;20041;-60
2021/01/22 08:08:34;;;;;;;19.92;12.38;;;4.40;81.40;;;;;;5058416;28;20031;-60
2021/01/22 08:11:15;;;;;;;15.95;11.18;;;4.40;81.50;;;;;;5059713;28;20028;-60
2021/01/22 08:13:44;;;;;;;17.13;12.02;;;4.40;81.30;;;;;;5055173;28;20035;-60
2021/01/22 08:16:10;;;;;;;21.52;13.20;;;4.40;81.70;;;;;;5055885;28;20431;-60
2021/01/22 08:18:43;;;;;;;23.08;14.35;;;4.50;81.70;;;;;;5058815;28;20024;-60
2021/01/22 08:21:09;;;;;;;20.98;13.85;;;4.50;81.70;;;;;;5053349;28;20029;-60
2021/01/22 08:23:35;;;;;;;18.98;12.43;;;4.60;81.70;;;;;;5056532;28;20029;-60
2021/01/22 08:26:01;;;;;;;18.42;11.80;;;4.60;81.30;;;;;;5057039;28;20035;-60
2021/01/22 08:28:27;;;;;;;23.63;13.55;;;4.60;81.00;;;;;;5049404;28;20037;-60
2021/01/22 08:30:53;;;;;;;20.13;12.80;;;4.50;80.90;;;;;;5055761;28;20062;-60
2021/01/22 08:33:23;;;;;;;19.63;13.43;;;4.50;80.80;;;;;;5055023;28;20040;-60
2021/01/22 08:35:49;;;;;;;21.27;13.35;;;4.50;80.80;;;;;;5053950;28;20028;-59
2021/01/22 08:38:15;;;;;;;21.25;13.85;;;4.40;80.80;;;;;;5053626;28;20028;-60
2021/01/22 08:40:46;;;;;;;20.75;13.60;;;4.40;81.00;;;;;;5053016;28;20025;-59
2021/01/22 08:43:12;;;;;;;24.27;15.75;;;4.40;81.30;;;;;;5055439;28;20036;-60
2021/01/22 08:45:42;;;;;;;24.13;14.90;;;4.40;81.30;;;;;;5056382;28;20021;-62
2021/01/22 08:48:08;;;;;;;24.90;15.23;;;4.50;81.40;;;;;;5054796;28;20041;-63
2021/01/22 08:50:35;;;;;;;19.80;13.27;;;4.50;81.60;;;;;;5051424;28;20032;-62
2021/01/22 08:53:14;;;;;;;22.88;14.32;;;4.60;81.50;;;;;;5050184;28;20050;-61
2021/01/22 08:55:41;;;;;;;19.10;12.35;;;4.60;80.80;;;;;;5054484;28;20073;-60
2021/01/22 08:58:09;;;;;;;19.27;12.07;;;4.60;80.80;;;;;;5051604;28;20028;-62
2021/01/22 09:00:36;;;;;;;18.65;13.05;;;4.60;80.80;;;;;;5053434;28;20028;-61
2021/01/22 09:03:02;;;;;;;23.63;15.60;;;4.50;80.50;;;;;;5057217;28;20967;-60
2021/01/22 09:05:28;;;;;;;25.60;15.95;;;4.50;80.70;;;;;;5052802;28;20073;-60
2021/01/22 09:08:12;;;;;;;22.80;14.68;;;4.50;81.50;;;;;;5056562;28;20048;-60
2021/01/22 09:10:45;;;;;;;26.98;16.25;;;4.50;80.70;;;;;;5055803;28;20056;-60
2021/01/22 09:13:12;;;;;;;28.40;17.00;;;4.50;81.00;;;;;;5053967;28;20090;-60
2021/01/22 09:15:39;;;;;;;31.63;18.65;;;4.50;81.00;;;;;;5049520;28;20033;-60
2021/01/22 09:18:15;;;;;;;33.00;18.67;;;4.60;81.20;;;;;;5056040;28;20036;-60
2021/01/22 09:20:43;;;;;;;26.83;16.83;;;4.60;81.10;;;;;;5050240;28;20074;-59
2021/01/22 09:23:08;;;;;;;28.40;17.23;;;4.60;81.20;;;;;;5050881;28;20741;-60
2021/01/22 09:25:34;;;;;;;29.83;16.98;;;4.70;81.00;;;;;;5051535;28;20069;-60
2021/01/22 09:28:00;;;;;;;33.63;19.92;;;4.70;80.90;;;;;;5054351;28;20060;-60
2021/01/22 09:30:27;;;;;;;30.27;18.80;;;4.80;81.00;;;;;;5056480;28;20064;-60
2021/01/22 09:32:57;;;;;;;27.45;17.67;;;4.80;80.90;;;;;;5053846;28;20029;-59
2021/01/22 09:35:25;;;;;;;24.13;15.60;;;4.90;80.90;;;;;;5053839;28;20368;-60
2021/01/22 09:37:51;;;;;;;22.02;14.23;;;4.90;80.70;;;;;;5054509;28;20024;-60
2021/01/22 09:40:18;;;;;;;22.55;15.30;;;5.00;80.40;;;;;;5045726;28;20060;-60
2021/01/22 09:42:44;;;;;;;19.65;13.25;;;5.00;80.10;;;;;;5052866;28;20012;-60
2021/01/22 09:45:11;;;;;;;18.70;12.40;;;5.00;80.10;;;;;;5055787;28;20041;-60
2021/01/22 09:47:37;;;;;;;19.85;12.57;;;5.00;79.90;;;;;;5058545;28;20029;-60
2021/01/22 09:50:06;;;;;;;20.77;13.13;;;5.00;79.70;;;;;;5055141;28;20036;-60
2021/01/22 09:52:33;;;;;;;19.83;12.85;;;4.90;79.70;;;;;;5062532;28;20025;-60
2021/01/22 09:54:59;;;;;;;17.05;11.13;;;4.90;79.70;;;;;;5057986;28;20460;-60
2021/01/22 09:57:24;;;;;;;22.15;14.10;;;5.00;79.70;;;;;;5058182;28;20025;-59
2021/01/22 09:59:50;;;;;;;21.58;13.75;;;4.90;79.60;;;;;;5060781;28;20415;-60
2021/01/22 10:02:16;;;;;;;19.05;13.38;;;4.90;79.70;;;;;;5052374;28;20048;-59
2021/01/22 10:04:42;;;;;;;23.23;14.70;;;5.00;79.80;;;;;;5055068;28;20021;-60
2021/01/22 10:07:07;;;;;;;26.83;15.23;;;4.90;79.80;;;;;;5062204;28;20045;-60
2021/01/22 10:09:33;;;;;;;18.88;13.43;;;5.00;79.70;;;;;;5053380;28;20082;-60
2021/01/22 10:11:59;;;;;;;20.45;13.77;;;5.00;79.70;;;;;;5051533;28;20029;-60
2021/01/22 10:14:25;;;;;;;23.20;15.02;;;4.90;79.20;;;;;;5058094;28;20586;-61
2021/01/22 10:16:51;;;;;;;20.80;12.18;;;4.90;79.30;;;;;;5061206;28;20021;-60
2021/01/22 10:19:18;;;;;;;17.17;11.70;;;4.90;79.30;;;;;;5057065;28;20871;-60
2021/01/22 10:21:44;;;;;;;18.83;12.85;;;4.90;79.30;;;;;;5054879;28;20032;-60
2021/01/22 10:24:10;;;;;;;17.88;12.25;;;4.90;79.30;;;;;;5053470;28;20392;-60
2021/01/22 10:26:35;;;;;;;18.10;12.13;;;4.90;79.10;;;;;;5058273;28;20028;-60
2021/01/22 10:29:01;;;;;;;18.58;13.20;;;4.80;79.40;;;;;;5059125;28;20032;-60
2021/01/22 10:31:27;;;;;;;23.13;13.93;;;4.80;79.40;;;;;;5056873;28;21784;-60
2021/01/22 10:33:53;;;;;;;21.40;14.27;;;4.70;79.40;;;;;;5059350;28;20516;-60
2021/01/22 10:36:18;;;;;;;23.70;15.77;;;4.70;79.50;;;;;;5058993;28;20040;-60
2021/01/22 10:38:44;;;;;;;27.17;17.92;;;4.70;79.60;;;;;;5057332;28;20063;-60
2021/01/22 10:41:10;;;;;;;25.25;15.93;;;4.70;79.60;;;;;;5055822;28;20028;-60
2021/01/22 10:43:36;;;;;;;24.45;16.15;;;4.70;79.80;;;;;;5056950;28;20055;-60
2021/01/22 10:46:02;;;;;;;23.92;15.73;;;4.80;79.80;;;;;;5060634;28;20112;-60
2021/01/22 10:48:28;;;;;;;23.00;15.00;;;4.80;79.90;;;;;;5061202;28;21633;-60
2021/01/22 10:50:55;;;;;;;30.08;18.83;;;4.80;79.80;;;;;;5054832;28;20079;-60
2021/01/22 10:53:21;;;;;;;32.35;20.45;;;4.80;79.80;;;;;;5055139;28;20086;-60
2021/01/22 10:55:47;;;;;;;32.42;21.08;;;4.80;79.70;;;;;;5051316;28;20067;-59
2021/01/22 10:58:13;;;;;;;34.92;23.63;;;4.90;79.50;;;;;;5051777;28;20025;-60
2021/01/22 11:00:39;;;;;;;34.15;23.10;;;4.90;79.50;;;;;;5054846;28;20119;-59
2021/01/22 11:03:05;;;;;;;32.33;22.08;;;4.90;79.40;;;;;;5054261;28;20514;-59
2021/01/22 11:05:33;;;;;;;35.05;23.38;;;4.80;79.30;;;;;;5046533;28;20707;-60
2021/01/22 11:07:59;;;;;;;29.35;20.08;;;4.80;79.40;;;;;;5055033;28;20138;-60
2021/01/22 11:10:25;;;;;;;31.95;21.48;;;4.90;79.60;;;;;;5049697;28;20056;-60
2021/01/22 11:12:53;;;;;;;30.98;20.80;;;4.90;79.60;;;;;;5054184;28;20048;-60
2021/01/22 11:15:19;;;;;;;30.70;20.27;;;4.90;79.50;;;;;;5057907;28;20021;-60
2021/01/22 11:17:45;;;;;;;34.40;21.40;;;4.80;79.40;;;;;;5054230;28;20428;-61
2021/01/22 11:20:13;;;;;;;25.38;17.88;;;4.80;79.30;;;;;;5056385;28;20022;-60
2021/01/22 11:22:40;;;;;;;24.15;16.83;;;4.80;79.30;;;;;;5053389;28;20025;-60
2021/01/22 11:25:06;;;;;;;30.23;19.50;;;4.80;79.50;;;;;;5049170;28;20495;-60
2021/01/22 11:27:32;;;;;;;29.77;18.45;;;4.90;79.70;;;;;;5051754;28;20029;-60
2021/01/22 11:29:57;;;;;;;32.95;21.70;;;4.80;79.70;;;;;;5052894;28;20051;-60
2021/01/22 11:32:23;;;;;;;27.17;18.88;;;4.90;79.70;;;;;;5048493;28;20029;-60
2021/01/22 11:34:49;;;;;;;33.75;19.70;;;4.90;79.50;;;;;;5054606;28;20025;-60
2021/01/22 11:37:16;;;;;;;31.02;21.45;;;4.90;80.20;;;;;;5051885;28;20025;-60
2021/01/22 11:39:42;;;;;;;26.27;19.15;;;5.00;79.90;;;;;;5052151;28;20037;-60
2021/01/22 11:42:09;;;;;;;32.97;21.13;;;5.10;79.60;;;;;;5062145;28;20365;-60
2021/01/22 11:44:36;;;;;;;37.03;23.75;;;5.10;79.70;;;;;;5056982;28;20075;-60
2021/01/22 11:47:03;;;;;;;34.13;22.95;;;5.20;80.20;;;;;;5055054;28;20052;-61
2021/01/22 11:49:29;;;;;;;37.42;24.42;;;5.30;79.40;;;;;;5053439;28;20024;-60
2021/01/22 11:51:55;;;;;;;38.63;24.23;;;5.30;79.30;;;;;;5054509;28;20044;-60
2021/01/22 11:54:21;;;;;;;36.33;25.23;;;5.30;79.10;;;;;;5054261;28;20678;-60
2021/01/22 11:56:49;;;;;;;35.30;23.25;;;5.30;79.10;;;;;;5056090;28;20453;-60
2021/01/22 11:59:16;;;;;;;37.22;25.58;;;5.40;79.10;;;;;;5055599;28;20078;-60
2021/01/22 12:01:42;;;;;;;37.47;26.02;;;5.40;79.00;;;;;;5055379;28;20050;-60
2021/01/22 12:04:07;;;;;;;39.15;27.27;;;5.40;78.90;;;;;;5051399;28;20017;-60
2021/01/22 12:06:33;;;;;;;31.52;21.95;;;5.40;78.80;;;;;;5057633;28;20427;-60
2021/01/22 12:08:59;;;;;;;33.22;22.10;;;5.40;78.70;;;;;;5054305;28;20131;-60
2021/01/22 12:11:26;;;;;;;23.17;16.40;;;5.40;78.60;;;;;;5059925;28;20459;-60
2021/01/22 12:13:52;;;;;;;25.23;17.20;;;5.40;78.50;;;;;;5059555;28;20070;-60
2021/01/22 12:16:18;;;;;;;26.15;17.35;;;5.40;78.30;;;;;;5050013;28;20032;-60
2021/01/22 12:18:43;;;;;;;24.95;16.70;;;5.40;78.30;;;;;;5055748;28;20224;-60
2021/01/22 12:21:10;;;;;;;26.42;17.52;;;5.30;78.80;;;;;;5052327;28;20086;-60
2021/01/22 12:23:36;;;;;;;28.33;19.35;;;5.30;78.20;;;;;;5052462;28;20021;-60
2021/01/22 12:26:02;;;;;;;27.73;20.00;;;5.30;78.40;;;;;;5040754;28;20870;-60
2021/01/22 12:28:28;;;;;;;25.25;18.27;;;5.30;78.30;;;;;;5053401;28;20024;-60
2021/01/22 12:30:54;;;;;;;27.02;19.45;;;5.30;78.50;;;;;;5056693;28;20040;-60
2021/01/22 12:33:19;;;;;;;26.02;18.60;;;5.30;78.60;;;;;;5054318;28;20043;-60
2021/01/22 12:35:49;;;;;;;26.65;19.45;;;5.30;78.40;;;;;;5058490;28;20024;-61
2021/01/22 12:38:16;;;;;;;26.48;17.75;;;5.30;78.40;;;;;;5053842;28;20518;-59
2021/01/22 12:40:42;;;;;;;24.80;17.40;;;5.30;78.20;;;;;;5054920;28;20028;-61